createdAt,value
2017-02-14T00:00:00.688Z,0
2017-02-14T00:01:10.589Z,0
2017-02-14T00:02:19.756Z,0
2017-02-14T00:03:29.740Z,0
2017-02-14T00:04:39.688Z,0
2017-02-14T00:05:48.857Z,0
2017-02-14T00:06:58.426Z,0
2017-02-14T00:08:08.762Z,0
2017-02-14T00:09:17.939Z,0
2017-02-14T00:10:27.512Z,0
2017-02-14T00:11:37.536Z,0
2017-02-14T00:12:47.048Z,0
2017-02-14T00:13:56.597Z,0
2017-02-14T00:15:06.107Z,0
2017-02-14T00:16:14.856Z,0
2017-02-14T00:17:23.972Z,0
2017-02-14T00:18:33.535Z,0
2017-02-14T00:19:42.332Z,0
2017-02-14T00:20:51.172Z,0
2017-02-14T00:22:01.129Z,0
2017-02-14T00:23:10.701Z,0
2017-02-14T00:24:19.867Z,0
2017-02-14T00:25:29.093Z,0
2017-02-14T00:26:38.621Z,0
2017-02-14T00:27:48.947Z,0
2017-02-14T00:28:58.517Z,0
2017-02-14T00:30:08.498Z,0
2017-02-14T00:31:17.256Z,0
2017-02-14T00:32:26.452Z,0
2017-02-14T00:33:36.016Z,0
2017-02-14T00:34:45.193Z,0
2017-02-14T00:35:53.974Z,0
2017-02-14T00:37:03.920Z,0
2017-02-14T00:38:13.444Z,0
2017-02-14T00:39:22.235Z,0
2017-02-14T00:40:32.161Z,0
2017-02-14T00:41:41.684Z,0
2017-02-14T00:42:51.679Z,0
2017-02-14T00:44:01.231Z,0
2017-02-14T00:45:10.394Z,0
2017-02-14T00:46:19.968Z,0
2017-02-14T00:47:30.328Z,0
2017-02-14T00:48:39.917Z,0
2017-02-14T00:49:50.282Z,0
2017-02-14T00:50:59.879Z,0
2017-02-14T00:52:09.829Z,0
2017-02-14T00:53:19.051Z,0
2017-02-14T00:54:28.625Z,0
2017-02-14T00:55:37.419Z,0
2017-02-14T00:56:47.361Z,0
2017-02-14T00:57:56.938Z,0
2017-02-14T00:59:06.517Z,0
2017-02-14T01:00:16.848Z,0
2017-02-14T01:01:27.192Z,0
2017-02-14T01:02:36.720Z,0
2017-02-14T01:03:45.499Z,0
2017-02-14T01:04:55.396Z,0
2017-02-14T01:06:04.933Z,0
2017-02-14T01:07:14.055Z,0
2017-02-14T01:08:23.210Z,0
2017-02-14T01:09:33.911Z,0
2017-02-14T01:10:43.088Z,0
2017-02-14T01:11:53.041Z,0
2017-02-14T01:13:03.391Z,0
2017-02-14T01:14:12.959Z,0
2017-02-14T01:15:22.907Z,0
2017-02-14T01:16:32.483Z,0
2017-02-14T01:17:42.469Z,0
2017-02-14T01:18:52.832Z,0
2017-02-14T01:20:03.126Z,0
2017-02-14T01:21:12.290Z,0
2017-02-14T01:22:22.247Z,0
2017-02-14T01:23:31.767Z,0
2017-02-14T01:24:40.923Z,0
2017-02-14T01:25:50.481Z,0
2017-02-14T01:27:00.439Z,0
2017-02-14T01:28:10.052Z,0
2017-02-14T01:29:19.605Z,0
2017-02-14T01:30:29.192Z,0
2017-02-14T01:31:38.367Z,0
2017-02-14T01:32:47.538Z,0
2017-02-14T01:33:56.727Z,0
2017-02-14T01:35:06.707Z,0
2017-02-14T01:36:17.078Z,0
2017-02-14T01:37:26.288Z,0
2017-02-14T01:38:35.825Z,0
2017-02-14T01:39:45.728Z,0
2017-02-14T01:40:55.214Z,0
2017-02-14T01:42:04.375Z,0
2017-02-14T01:43:13.171Z,0
2017-02-14T01:44:22.352Z,0
2017-02-14T01:45:32.296Z,0
2017-02-14T01:46:41.864Z,0
2017-02-14T01:47:51.384Z,0
2017-02-14T01:49:01.682Z,0
2017-02-14T01:50:12.009Z,0
2017-02-14T01:51:20.817Z,0
2017-02-14T01:52:30.404Z,0
2017-02-14T01:53:39.588Z,0
2017-02-14T01:54:49.101Z,0
2017-02-14T01:55:59.392Z,0
2017-02-14T01:57:09.711Z,0
2017-02-14T01:58:19.660Z,0
2017-02-14T01:59:29.992Z,0
2017-02-14T02:00:39.186Z,0
2017-02-14T02:01:58.392Z,0
2017-02-14T02:03:08.307Z,0
2017-02-14T02:04:17.845Z,0
2017-02-14T02:05:27.030Z,0
2017-02-14T02:06:36.612Z,0
2017-02-14T02:07:46.005Z,0
2017-02-14T02:08:55.583Z,0
2017-02-14T02:10:05.739Z,0
2017-02-14T02:11:15.691Z,0
2017-02-14T02:12:25.247Z,0
2017-02-14T02:13:34.442Z,0
2017-02-14T02:14:44.377Z,0
2017-02-14T02:15:54.361Z,0
2017-02-14T02:17:03.560Z,0
2017-02-14T02:18:12.891Z,0
2017-02-14T02:19:22.666Z,0
2017-02-14T02:20:32.637Z,0
2017-02-14T02:21:41.477Z,0
2017-02-14T02:22:51.057Z,0
2017-02-14T02:24:00.635Z,0
2017-02-14T02:25:10.692Z,0
2017-02-14T02:26:20.054Z,0
2017-02-14T02:27:29.207Z,0
2017-02-14T02:28:38.784Z,0
2017-02-14T02:29:48.758Z,0
2017-02-14T02:30:58.742Z,0
2017-02-14T02:32:09.319Z,0
2017-02-14T02:33:19.290Z,0
2017-02-14T02:34:29.636Z,0
2017-02-14T02:35:39.575Z,0
2017-02-14T02:36:49.529Z,0
2017-02-14T02:37:59.480Z,0
2017-02-14T02:39:09.441Z,0
2017-02-14T02:40:18.951Z,0
2017-02-14T02:41:28.496Z,0
2017-02-14T02:42:37.672Z,0
2017-02-14T02:43:48.017Z,0
2017-02-14T02:44:57.187Z,0
2017-02-14T02:46:07.537Z,0
2017-02-14T02:47:17.121Z,0
2017-02-14T02:48:26.685Z,0
2017-02-14T02:49:35.874Z,0
2017-02-14T02:50:45.830Z,0
2017-02-14T02:51:55.028Z,0
2017-02-14T02:53:04.588Z,0
2017-02-14T02:54:13.790Z,0
2017-02-14T02:55:22.976Z,0
2017-02-14T02:56:33.334Z,0
2017-02-14T02:57:42.862Z,0
2017-02-14T02:58:52.738Z,0
2017-02-14T03:00:02.642Z,0
2017-02-14T03:01:11.808Z,0
2017-02-14T03:02:21.769Z,0
2017-02-14T03:03:31.673Z,0
2017-02-14T03:04:40.837Z,0
2017-02-14T03:05:50.013Z,0
2017-02-14T03:07:00.743Z,0
2017-02-14T03:08:10.634Z,0
2017-02-14T03:09:19.793Z,0
2017-02-14T03:10:28.994Z,0
2017-02-14T03:11:37.793Z,0
2017-02-14T03:12:46.976Z,0
2017-02-14T03:13:56.547Z,0
2017-02-14T03:15:05.699Z,0
2017-02-14T03:16:15.256Z,0
2017-02-14T03:17:25.543Z,0
2017-02-14T03:18:34.720Z,0
2017-02-14T03:19:43.890Z,0
2017-02-14T03:20:53.832Z,0
2017-02-14T03:22:03.781Z,0
2017-02-14T03:23:14.135Z,0
2017-02-14T03:24:24.100Z,0
2017-02-14T03:25:32.879Z,0
2017-02-14T03:26:42.053Z,0
2017-02-14T03:27:51.945Z,0
2017-02-14T03:29:01.066Z,0
2017-02-14T03:30:10.633Z,0
2017-02-14T03:31:19.771Z,0
2017-02-14T03:32:29.313Z,0
2017-02-14T03:33:38.467Z,0
2017-02-14T03:34:48.382Z,0
2017-02-14T03:35:57.938Z,0
2017-02-14T03:37:07.095Z,0
2017-02-14T03:38:16.251Z,0
2017-02-14T03:39:26.204Z,0
2017-02-14T03:40:35.378Z,0
2017-02-14T03:41:45.348Z,0
2017-02-14T03:42:55.311Z,0
2017-02-14T03:44:04.868Z,0
2017-02-14T03:45:14.592Z,0
2017-02-14T03:46:24.154Z,0
2017-02-14T03:47:34.492Z,0
2017-02-14T03:48:43.278Z,0
2017-02-14T03:49:52.791Z,0
2017-02-14T03:51:01.951Z,0
2017-02-14T03:52:11.515Z,0
2017-02-14T03:53:20.715Z,0
2017-02-14T03:54:30.278Z,0
2017-02-14T03:55:40.559Z,0
2017-02-14T03:56:50.110Z,0
2017-02-14T03:58:00.462Z,0
2017-02-14T03:59:10.015Z,0
2017-02-14T04:00:19.188Z,0
2017-02-14T04:01:28.750Z,0
2017-02-14T04:02:38.322Z,0
2017-02-14T04:03:49.045Z,0
2017-02-14T04:04:58.214Z,0
2017-02-14T04:06:07.532Z,0
2017-02-14T04:07:16.361Z,0
2017-02-14T04:08:25.931Z,0
2017-02-14T04:09:35.121Z,0
2017-02-14T04:10:44.302Z,0
2017-02-14T04:11:53.808Z,0
2017-02-14T04:13:03.374Z,0
2017-02-14T04:14:12.556Z,0
2017-02-14T04:15:22.492Z,0
2017-02-14T04:16:32.052Z,0
2017-02-14T04:17:41.569Z,0
2017-02-14T04:18:51.917Z,0
2017-02-14T04:20:02.261Z,0
2017-02-14T04:21:11.824Z,0
2017-02-14T04:22:21.399Z,0
2017-02-14T04:23:31.744Z,0
2017-02-14T04:24:41.315Z,0
2017-02-14T04:25:51.269Z,0
2017-02-14T04:27:00.072Z,0
2017-02-14T04:28:10.038Z,0
2017-02-14T04:29:19.173Z,0
2017-02-14T04:30:28.668Z,0
2017-02-14T04:31:38.594Z,0
2017-02-14T04:32:47.756Z,0
2017-02-14T04:33:57.692Z,0
2017-02-14T04:35:06.866Z,0
2017-02-14T04:36:16.046Z,0
2017-02-14T04:37:24.853Z,0
2017-02-14T04:38:34.802Z,0
2017-02-14T04:39:45.107Z,0
2017-02-14T04:40:54.217Z,0
2017-02-14T04:42:03.780Z,0
2017-02-14T04:43:13.340Z,0
2017-02-14T04:44:23.305Z,0
2017-02-14T04:45:32.482Z,0
2017-02-14T04:46:42.062Z,0
2017-02-14T04:47:51.226Z,0
2017-02-14T04:49:01.573Z,0
2017-02-14T04:50:11.140Z,0
2017-02-14T04:51:21.467Z,0
2017-02-14T04:52:31.846Z,0
2017-02-14T04:53:41.372Z,0
2017-02-14T04:54:50.527Z,0
2017-02-14T04:56:00.090Z,0
2017-02-14T04:57:09.649Z,0
2017-02-14T04:58:19.589Z,0
2017-02-14T04:59:28.725Z,0
2017-02-14T05:00:38.645Z,0
2017-02-14T05:01:48.603Z,0
2017-02-14T05:02:58.493Z,0
2017-02-14T05:04:07.654Z,0
2017-02-14T05:05:17.547Z,0
2017-02-14T05:06:27.880Z,0
2017-02-14T05:07:36.619Z,0
2017-02-14T05:08:46.541Z,0
2017-02-14T05:09:56.507Z,0
2017-02-14T05:11:06.398Z,0
2017-02-14T05:12:15.182Z,0
2017-02-14T05:13:24.966Z,0
2017-02-14T05:14:34.536Z,0
2017-02-14T05:15:44.086Z,0
2017-02-14T05:16:53.642Z,0
2017-02-14T05:18:03.217Z,0
2017-02-14T05:19:13.192Z,0
2017-02-14T05:20:23.925Z,0
2017-02-14T05:21:34.282Z,0
2017-02-14T05:22:44.623Z,0
2017-02-14T05:23:54.960Z,0
2017-02-14T05:25:04.477Z,0
2017-02-14T05:26:14.508Z,0
2017-02-14T05:27:23.636Z,0
2017-02-14T05:28:33.964Z,0
2017-02-14T05:29:43.473Z,0
2017-02-14T05:30:53.008Z,0
2017-02-14T05:32:03.696Z,0
2017-02-14T05:33:13.582Z,0
2017-02-14T05:34:23.523Z,0
2017-02-14T05:35:33.822Z,0
2017-02-14T05:36:43.697Z,0
2017-02-14T05:37:54.033Z,0
2017-02-14T05:39:02.801Z,0
2017-02-14T05:40:13.515Z,0
2017-02-14T05:41:23.852Z,0
2017-02-14T05:42:33.403Z,0
2017-02-14T05:43:43.733Z,0
2017-02-14T05:44:53.894Z,0
2017-02-14T05:46:03.469Z,0
2017-02-14T05:47:13.031Z,0
2017-02-14T05:48:22.527Z,0
2017-02-14T05:49:32.050Z,0
2017-02-14T05:50:41.605Z,0
2017-02-14T05:51:51.174Z,0
2017-02-14T05:53:00.693Z,0
2017-02-14T05:54:10.242Z,0
2017-02-14T05:55:20.576Z,0
2017-02-14T05:56:30.126Z,0
2017-02-14T05:57:39.313Z,4
2017-02-14T05:58:48.496Z,28
2017-02-14T05:59:57.289Z,0
2017-02-14T06:01:06.407Z,0
2017-02-14T06:02:15.144Z,0
2017-02-14T06:03:24.309Z,0
2017-02-14T06:04:34.579Z,0
2017-02-14T06:05:44.040Z,0
2017-02-14T06:06:52.866Z,0
2017-02-14T06:08:03.224Z,0
2017-02-14T06:09:12.349Z,0
2017-02-14T06:10:22.289Z,0
2017-02-14T06:11:32.155Z,0
2017-02-14T06:12:40.886Z,0
2017-02-14T06:13:50.431Z,0
2017-02-14T06:14:59.953Z,0
2017-02-14T06:16:09.879Z,4
2017-02-14T06:17:19.778Z,0
2017-02-14T06:18:28.895Z,0
2017-02-14T06:19:38.073Z,4
2017-02-14T06:20:46.863Z,0
2017-02-14T06:21:56.792Z,4
2017-02-14T06:23:07.137Z,0
2017-02-14T06:24:16.690Z,4
2017-02-14T06:25:25.820Z,4
2017-02-14T06:26:35.387Z,4
2017-02-14T06:27:45.267Z,4
2017-02-14T06:28:54.419Z,4
2017-02-14T06:30:04.360Z,8
2017-02-14T06:31:13.926Z,8
2017-02-14T06:32:23.103Z,12
2017-02-14T06:33:32.607Z,16
2017-02-14T06:34:42.934Z,16
2017-02-14T06:35:52.885Z,20
2017-02-14T06:37:02.444Z,20
2017-02-14T06:38:11.625Z,24
2017-02-14T06:39:21.173Z,24
2017-02-14T06:40:30.753Z,28
2017-02-14T06:41:40.328Z,32
2017-02-14T06:42:49.500Z,36
2017-02-14T06:43:58.653Z,40
2017-02-14T06:45:08.798Z,44
2017-02-14T06:46:18.372Z,52
2017-02-14T06:47:27.946Z,56
2017-02-14T06:48:37.522Z,60
2017-02-14T06:49:46.682Z,64
2017-02-14T06:50:56.233Z,72
2017-02-14T06:52:05.808Z,76
2017-02-14T06:53:14.621Z,84
2017-02-14T06:54:24.575Z,88
2017-02-14T06:55:34.722Z,96
2017-02-14T06:56:44.678Z,104
2017-02-14T06:57:53.530Z,108
2017-02-14T06:59:02.723Z,116
2017-02-14T07:00:11.880Z,124
2017-02-14T07:01:21.997Z,132
2017-02-14T07:02:31.123Z,144
2017-02-14T07:03:41.829Z,148
2017-02-14T07:04:51.401Z,156
2017-02-14T07:06:00.605Z,164
2017-02-14T07:07:10.531Z,176
2017-02-14T07:08:20.496Z,184
2017-02-14T07:09:30.469Z,192
2017-02-14T07:10:40.772Z,204
2017-02-14T07:11:50.308Z,216
2017-02-14T07:12:59.846Z,228
2017-02-14T07:14:09.405Z,236
2017-02-14T07:15:19.336Z,252
2017-02-14T07:16:28.170Z,264
2017-02-14T07:17:38.132Z,288
2017-02-14T07:18:48.069Z,340
2017-02-14T07:19:57.240Z,384
2017-02-14T07:21:06.364Z,416
2017-02-14T07:22:16.160Z,436
2017-02-14T07:23:24.961Z,452
2017-02-14T07:24:34.903Z,420
2017-02-14T07:25:44.841Z,420
2017-02-14T07:26:55.184Z,456
2017-02-14T07:28:05.140Z,496
2017-02-14T07:29:14.695Z,496
2017-02-14T07:30:23.876Z,492
2017-02-14T07:31:33.642Z,520
2017-02-14T07:32:42.826Z,528
2017-02-14T07:33:52.777Z,524
2017-02-14T07:35:01.956Z,644
2017-02-14T07:36:11.726Z,764
2017-02-14T07:37:20.933Z,816
2017-02-14T07:38:30.878Z,864
2017-02-14T07:39:41.211Z,944
2017-02-14T07:40:50.792Z,1064
2017-02-14T07:42:00.735Z,1204
2017-02-14T07:43:09.916Z,1316
2017-02-14T07:44:19.083Z,1396
2017-02-14T07:45:27.897Z,1352
2017-02-14T07:46:37.401Z,1408
2017-02-14T07:47:46.937Z,1564
2017-02-14T07:48:56.113Z,1780
2017-02-14T07:50:05.631Z,2008
2017-02-14T07:51:15.178Z,2176
2017-02-14T07:52:24.007Z,2284
2017-02-14T07:53:34.344Z,2376
2017-02-14T07:54:44.290Z,2520
2017-02-14T07:55:54.566Z,2640
2017-02-14T07:57:04.082Z,2712
2017-02-14T07:58:13.261Z,2776
2017-02-14T07:59:22.441Z,2812
2017-02-14T08:00:31.952Z,2860
2017-02-14T08:01:41.112Z,2872
2017-02-14T08:02:50.301Z,2912
2017-02-14T08:03:59.814Z,2952
2017-02-14T08:05:09.352Z,3004
2017-02-14T08:06:18.520Z,3048
2017-02-14T08:07:28.095Z,3096
2017-02-14T08:08:38.054Z,3112
2017-02-14T08:09:47.239Z,3160
2017-02-14T08:10:56.034Z,3180
2017-02-14T08:12:05.979Z,3220
2017-02-14T08:13:15.734Z,3236
2017-02-14T08:14:25.299Z,3280
2017-02-14T08:15:34.874Z,3308
2017-02-14T08:16:44.495Z,3312
2017-02-14T08:17:54.435Z,3340
2017-02-14T08:19:03.607Z,3352
2017-02-14T08:20:13.181Z,3364
2017-02-14T08:21:22.739Z,3376
2017-02-14T08:22:31.908Z,3396
2017-02-14T08:23:41.471Z,3416
2017-02-14T08:24:50.276Z,3452
2017-02-14T08:26:00.417Z,3440
2017-02-14T08:27:10.181Z,3476
2017-02-14T08:28:19.724Z,3468
2017-02-14T08:29:30.446Z,3496
2017-02-14T08:30:39.228Z,3496
2017-02-14T08:31:49.600Z,3508
2017-02-14T08:32:59.874Z,3532
2017-02-14T08:34:09.359Z,3524
2017-02-14T08:35:18.538Z,3552
2017-02-14T08:36:28.120Z,3568
2017-02-14T08:37:37.692Z,3572
2017-02-14T08:38:46.817Z,3620
2017-02-14T08:39:56.766Z,3632
2017-02-14T08:41:06.719Z,3664
2017-02-14T08:42:15.835Z,3696
2017-02-14T08:43:25.372Z,3732
2017-02-14T08:44:35.683Z,3752
2017-02-14T08:45:44.863Z,3784
2017-02-14T08:46:54.792Z,3832
2017-02-14T08:48:04.352Z,3868
2017-02-14T08:49:13.919Z,3924
2017-02-14T08:50:23.541Z,3996
2017-02-14T08:51:32.739Z,4092
2017-02-14T08:52:42.708Z,4216
2017-02-14T08:53:52.649Z,4324
2017-02-14T08:55:02.986Z,4564
2017-02-14T08:56:12.555Z,5224
2017-02-14T08:57:21.748Z,7012
2017-02-14T08:58:31.279Z,11964
2017-02-14T08:59:41.611Z,14336
2017-02-14T09:00:51.939Z,14976
2017-02-14T09:02:01.510Z,15040
2017-02-14T09:03:11.118Z,15136
2017-02-14T09:04:20.287Z,15808
2017-02-14T09:05:29.456Z,15936
2017-02-14T09:06:39.032Z,15712
2017-02-14T09:07:48.550Z,16000
2017-02-14T09:08:58.500Z,15872
2017-02-14T09:10:08.471Z,16256
2017-02-14T09:11:18.819Z,16288
2017-02-14T09:12:29.163Z,16224
2017-02-14T09:13:38.732Z,16576
2017-02-14T09:14:48.297Z,16768
2017-02-14T09:15:58.795Z,16576
2017-02-14T09:17:09.128Z,15936
2017-02-14T09:18:18.713Z,16064
2017-02-14T09:19:28.237Z,16320
2017-02-14T09:23:37.891Z,15712
2017-02-14T09:30:07.540Z,16320
2017-02-14T09:31:17.443Z,15968
2017-02-14T09:32:26.997Z,16480
2017-02-14T09:33:36.899Z,16832
2017-02-14T09:34:46.007Z,17056
2017-02-14T09:35:56.341Z,17312
2017-02-14T09:37:06.305Z,16864
2017-02-14T09:38:15.871Z,17088
2017-02-14T09:39:25.417Z,17952
2017-02-14T09:40:34.972Z,17696
2017-02-14T09:41:44.973Z,18208
2017-02-14T09:42:54.167Z,18592
2017-02-14T09:44:03.761Z,18656
2017-02-14T09:45:13.705Z,18080
2017-02-14T09:46:23.621Z,17696
2017-02-14T09:47:33.952Z,18432
2017-02-14T09:48:43.913Z,19232
2017-02-14T09:49:54.291Z,19104
2017-02-14T09:51:03.850Z,19040
2017-02-14T09:52:12.636Z,19360
2017-02-14T09:53:22.602Z,20224
2017-02-14T09:54:32.567Z,20896
2017-02-14T09:55:41.762Z,21504
2017-02-14T09:56:50.965Z,21952
2017-02-14T09:58:00.959Z,22048
2017-02-14T09:59:10.563Z,21920
2017-02-14T10:00:20.527Z,22144
2017-02-14T10:01:30.499Z,23456
2017-02-14T10:02:40.486Z,23712
2017-02-14T10:03:50.765Z,24064
2017-02-14T10:05:01.110Z,23872
2017-02-14T10:06:11.014Z,24032
2017-02-14T10:07:20.552Z,24512
2017-02-14T10:08:31.244Z,24672
2017-02-14T10:09:41.147Z,24864
2017-02-14T10:10:51.416Z,24960
2017-02-14T10:12:01.371Z,25184
2017-02-14T10:13:12.244Z,25760
2017-02-14T10:14:22.686Z,26208
2017-02-14T10:15:32.287Z,26784
2017-02-14T10:16:41.930Z,26912
2017-02-14T10:17:52.021Z,26528
2017-02-14T10:19:02.308Z,26176
2017-02-14T10:20:11.874Z,26272
2017-02-14T10:21:21.556Z,26240
2017-02-14T10:22:31.835Z,26208
2017-02-14T10:23:41.835Z,26112
2017-02-14T10:24:51.860Z,26112
2017-02-14T10:26:01.748Z,25472
2017-02-14T10:27:11.675Z,24960
2017-02-14T10:28:20.869Z,25952
2017-02-14T10:29:30.434Z,26528
2017-02-14T10:30:39.947Z,27296
2017-02-14T10:31:49.906Z,26720
2017-02-14T10:32:58.746Z,25696
2017-02-14T10:34:08.661Z,24256
2017-02-14T10:35:18.587Z,24128
2017-02-14T10:36:28.162Z,24512
2017-02-14T10:37:37.749Z,23552
2017-02-14T10:38:48.049Z,22208
2017-02-14T10:39:57.947Z,21728
2017-02-14T10:41:07.542Z,21696
2017-02-14T10:42:17.902Z,21856
2017-02-14T10:43:27.060Z,21728
2017-02-14T10:44:36.574Z,20768
2017-02-14T10:45:45.791Z,21280
2017-02-14T10:46:54.978Z,22496
2017-02-14T10:48:04.956Z,23520
2017-02-14T10:49:14.094Z,24640
2017-02-14T10:50:24.037Z,23072
2017-02-14T10:51:33.234Z,23360
2017-02-14T10:52:42.457Z,22656
2017-02-14T10:53:51.999Z,22208
2017-02-14T10:55:02.353Z,22400
2017-02-14T10:56:13.085Z,21696
2017-02-14T10:57:21.887Z,22080
2017-02-14T10:58:31.096Z,21600
2017-02-14T10:59:41.449Z,21504
2017-02-14T11:00:52.178Z,20960
2017-02-14T11:02:02.302Z,21312
2017-02-14T11:03:13.039Z,21280
2017-02-14T11:04:23.376Z,21184
2017-02-14T11:05:33.297Z,21696
2017-02-14T11:06:42.843Z,22240
2017-02-14T11:07:53.549Z,22752
2017-02-14T11:09:03.497Z,22688
2017-02-14T11:10:13.064Z,23296
2017-02-14T11:11:22.961Z,24032
2017-02-14T11:12:32.890Z,24096
2017-02-14T11:13:42.827Z,24096
2017-02-14T11:14:52.790Z,23392
2017-02-14T11:16:01.926Z,23648
2017-02-14T11:17:11.870Z,24128
2017-02-14T11:18:21.057Z,24352
2017-02-14T11:19:31.061Z,24384
2017-02-14T11:20:41.023Z,24768
2017-02-14T11:21:51.014Z,25696
2017-02-14T11:23:00.914Z,27008
2017-02-14T11:24:10.118Z,26016
2017-02-14T11:25:19.694Z,25920
2017-02-14T11:26:29.259Z,26720
2017-02-14T11:27:38.843Z,27136
2017-02-14T11:28:48.176Z,27680
2017-02-14T11:29:57.359Z,28640
2017-02-14T11:31:06.968Z,28288
2017-02-14T11:32:16.548Z,28416
2017-02-14T11:33:26.508Z,28736
2017-02-14T11:34:35.343Z,29248
2017-02-14T11:35:44.540Z,29952
2017-02-14T11:36:54.493Z,29888
2017-02-14T11:38:04.826Z,29184
2017-02-14T11:39:14.392Z,28000
2017-02-14T11:40:23.978Z,28608
2017-02-14T11:41:33.965Z,30656
2017-02-14T11:42:43.883Z,29184
2017-02-14T11:43:54.219Z,29664
2017-02-14T11:45:03.780Z,29568
2017-02-14T11:46:13.725Z,29856
2017-02-14T11:47:23.295Z,30368
2017-02-14T11:48:33.303Z,30848
2017-02-14T11:49:42.838Z,29696
2017-02-14T11:50:52.396Z,29728
2017-02-14T11:52:01.597Z,30528
2017-02-14T11:53:11.166Z,31520
2017-02-14T11:54:20.746Z,29952
2017-02-14T11:55:30.322Z,29440
2017-02-14T11:56:39.484Z,30112
2017-02-14T11:57:49.433Z,27392
2017-02-14T11:58:59.396Z,27968
2017-02-14T12:00:09.684Z,20800
2017-02-14T12:01:19.634Z,5840
2017-02-14T12:02:29.230Z,3376
2017-02-14T12:03:38.816Z,2776
2017-02-14T12:04:48.773Z,2664
2017-02-14T12:05:58.333Z,2612
2017-02-14T12:07:07.508Z,2568
2017-02-14T12:08:16.684Z,2536
2017-02-14T12:09:26.638Z,2484
2017-02-14T12:10:35.834Z,2444
2017-02-14T12:11:46.177Z,2400
2017-02-14T12:12:55.372Z,2368
2017-02-14T12:14:05.357Z,2328
2017-02-14T12:15:14.555Z,2296
2017-02-14T12:16:24.547Z,2264
2017-02-14T12:17:34.115Z,2232
2017-02-14T12:18:44.408Z,2208
2017-02-14T12:19:53.949Z,2180
2017-02-14T12:21:04.284Z,2156
2017-02-14T12:22:13.876Z,2128
2017-02-14T12:23:23.396Z,2104
2017-02-14T12:24:32.570Z,2072
2017-02-14T12:25:41.761Z,2056
2017-02-14T12:26:50.943Z,2036
2017-02-14T12:28:00.473Z,2020
2017-02-14T12:29:10.417Z,1996
2017-02-14T12:30:19.997Z,1976
2017-02-14T12:31:29.562Z,1960
2017-02-14T12:32:39.145Z,1940
2017-02-14T12:33:49.505Z,1920
2017-02-14T12:34:58.731Z,1896
2017-02-14T12:36:09.031Z,1872
2017-02-14T12:37:18.200Z,1844
2017-02-14T12:38:27.774Z,1824
2017-02-14T12:39:38.073Z,1804
2017-02-14T12:40:48.011Z,1792
2017-02-14T12:41:57.585Z,1772
2017-02-14T12:43:06.732Z,1760
2017-02-14T12:44:15.892Z,1744
2017-02-14T12:45:25.449Z,1736
2017-02-14T12:46:35.779Z,1732
2017-02-14T12:47:45.378Z,1728
2017-02-14T12:48:54.964Z,1720
2017-02-14T12:50:04.923Z,1704
2017-02-14T12:51:15.649Z,1692
2017-02-14T12:52:26.006Z,1680
2017-02-14T12:53:35.202Z,1668
2017-02-14T12:54:45.107Z,1652
2017-02-14T12:55:53.914Z,1648
2017-02-14T12:57:03.516Z,1640
2017-02-14T12:58:12.696Z,1632
2017-02-14T12:59:22.215Z,1624
2017-02-14T13:00:31.406Z,1616
2017-02-14T13:01:40.979Z,1612
2017-02-14T13:02:50.546Z,1600
2017-02-14T13:04:00.512Z,1596
2017-02-14T13:05:10.096Z,1588
2017-02-14T13:06:19.278Z,1580
2017-02-14T13:07:29.247Z,1572
2017-02-14T13:08:39.216Z,1552
2017-02-14T13:09:48.393Z,1540
2017-02-14T13:10:57.573Z,1536
2017-02-14T13:12:07.086Z,1520
2017-02-14T13:13:16.680Z,1496
2017-02-14T13:14:26.225Z,1480
2017-02-14T13:15:35.775Z,1468
2017-02-14T13:16:45.696Z,1456
2017-02-14T13:17:55.253Z,1456
2017-02-14T13:19:04.819Z,1440
2017-02-14T13:20:14.458Z,1420
2017-02-14T13:21:24.813Z,1400
2017-02-14T13:22:34.371Z,1396
2017-02-14T13:23:44.319Z,1396
2017-02-14T13:24:54.282Z,1384
2017-02-14T13:26:03.467Z,1368
2017-02-14T13:27:13.797Z,1360
2017-02-14T13:28:22.963Z,1356
2017-02-14T13:29:32.528Z,1344
2017-02-14T13:30:42.111Z,1336
2017-02-14T13:31:51.616Z,1336
2017-02-14T13:33:00.735Z,1320
2017-02-14T13:34:10.300Z,1304
2017-02-14T13:35:19.497Z,1292
2017-02-14T13:36:29.453Z,1280
2017-02-14T13:37:38.651Z,1264
2017-02-14T13:38:49.007Z,1252
2017-02-14T13:39:58.593Z,1240
2017-02-14T13:41:09.312Z,1220
2017-02-14T13:42:18.888Z,1204
2017-02-14T13:43:29.259Z,1180
2017-02-14T13:44:38.063Z,1156
2017-02-14T13:45:48.788Z,1132
2017-02-14T13:46:59.132Z,1112
2017-02-14T13:48:07.997Z,1096
2017-02-14T13:49:17.950Z,1088
2017-02-14T13:50:27.126Z,1076
2017-02-14T13:51:36.722Z,1068
2017-02-14T13:52:46.672Z,1056
2017-02-14T13:53:56.645Z,1048
2017-02-14T13:55:06.609Z,1036
2017-02-14T13:56:15.785Z,1024
2017-02-14T13:57:25.685Z,1008
2017-02-14T13:58:34.874Z,992
2017-02-14T13:59:44.823Z,976
2017-02-14T14:00:55.191Z,964
2017-02-14T14:02:05.155Z,948
2017-02-14T14:03:15.500Z,936
2017-02-14T14:04:25.436Z,920
2017-02-14T14:05:35.002Z,908
2017-02-14T14:06:44.900Z,892
2017-02-14T14:07:54.839Z,880
2017-02-14T14:09:03.637Z,868
2017-02-14T14:10:12.449Z,852
2017-02-14T14:11:21.632Z,840
2017-02-14T14:12:31.182Z,828
2017-02-14T14:13:41.150Z,812
2017-02-14T14:14:50.689Z,804
2017-02-14T14:16:01.027Z,800
2017-02-14T14:17:11.369Z,792
2017-02-14T14:18:20.883Z,780
2017-02-14T14:19:30.060Z,768
2017-02-14T14:20:40.040Z,760
2017-02-14T14:21:50.020Z,748
2017-02-14T14:22:58.805Z,740
2017-02-14T14:24:07.941Z,732
2017-02-14T14:25:17.502Z,720
2017-02-14T14:26:27.027Z,708
2017-02-14T14:27:36.591Z,696
2017-02-14T14:28:46.169Z,688
2017-02-14T14:29:56.133Z,676
2017-02-14T14:31:04.877Z,668
2017-02-14T14:32:14.439Z,656
2017-02-14T14:33:24.723Z,648
2017-02-14T14:34:34.269Z,636
2017-02-14T14:35:43.841Z,628
2017-02-14T14:36:52.633Z,616
2017-02-14T14:38:02.597Z,608
2017-02-14T14:39:12.570Z,600
2017-02-14T14:40:22.152Z,592
2017-02-14T14:41:32.111Z,584
2017-02-14T14:42:41.678Z,576
2017-02-14T14:43:51.266Z,572
2017-02-14T14:45:00.829Z,568
2017-02-14T14:46:10.037Z,556
2017-02-14T14:47:20.004Z,552
2017-02-14T14:48:29.576Z,544
2017-02-14T14:49:38.772Z,532
2017-02-14T14:50:49.060Z,520
2017-02-14T14:51:59.000Z,512
2017-02-14T14:53:08.573Z,504
2017-02-14T14:54:18.156Z,500
2017-02-14T14:55:26.894Z,492
2017-02-14T14:56:37.225Z,484
2017-02-14T14:57:46.802Z,476
2017-02-14T14:58:56.775Z,472
2017-02-14T15:00:06.703Z,460
2017-02-14T15:01:16.637Z,452
2017-02-14T15:02:25.812Z,448
2017-02-14T15:03:34.985Z,440
2017-02-14T15:04:44.563Z,436
2017-02-14T15:05:53.362Z,432
2017-02-14T15:07:02.906Z,432
2017-02-14T15:08:12.852Z,424
2017-02-14T15:09:22.031Z,416
2017-02-14T15:10:32.395Z,412
2017-02-14T15:11:42.344Z,408
2017-02-14T15:12:51.522Z,404
2017-02-14T15:14:00.323Z,400
2017-02-14T15:15:09.447Z,396
2017-02-14T15:16:18.957Z,392
2017-02-14T15:17:28.920Z,388
2017-02-14T15:18:38.483Z,384
2017-02-14T15:19:48.832Z,376
2017-02-14T15:20:58.388Z,372
2017-02-14T15:22:08.723Z,364
2017-02-14T15:23:18.304Z,364
2017-02-14T15:24:27.881Z,356
2017-02-14T15:25:37.466Z,352
2017-02-14T15:26:46.658Z,344
2017-02-14T15:27:56.983Z,344
2017-02-14T15:29:06.949Z,336
2017-02-14T15:30:16.898Z,332
2017-02-14T15:31:26.087Z,328
2017-02-14T15:32:35.611Z,324
2017-02-14T15:33:45.156Z,316
2017-02-14T15:34:55.503Z,312
2017-02-14T15:36:05.102Z,308
2017-02-14T15:37:14.682Z,304
2017-02-14T15:38:24.266Z,300
2017-02-14T15:39:34.614Z,296
2017-02-14T15:40:44.556Z,288
2017-02-14T15:41:54.131Z,280
2017-02-14T15:43:03.648Z,280
2017-02-14T15:44:13.601Z,272
2017-02-14T15:45:23.188Z,268
2017-02-14T15:46:32.780Z,264
2017-02-14T15:47:42.758Z,260
2017-02-14T15:48:52.274Z,252
2017-02-14T15:50:02.216Z,248
2017-02-14T15:51:12.560Z,240
2017-02-14T15:52:21.745Z,236
2017-02-14T15:53:31.306Z,232
2017-02-14T15:54:40.489Z,228
2017-02-14T15:55:50.000Z,224
2017-02-14T15:57:00.780Z,216
2017-02-14T15:58:11.311Z,212
2017-02-14T15:59:20.866Z,208
2017-02-14T16:00:30.852Z,204
2017-02-14T16:01:40.036Z,196
2017-02-14T16:02:49.987Z,192
2017-02-14T16:03:59.620Z,188
2017-02-14T16:05:08.428Z,180
2017-02-14T16:06:17.628Z,176
2017-02-14T16:07:27.981Z,176
2017-02-14T16:08:37.565Z,168
2017-02-14T16:09:46.688Z,160
2017-02-14T16:10:57.402Z,160
2017-02-14T16:12:06.594Z,152
2017-02-14T16:13:16.569Z,148
2017-02-14T16:14:26.468Z,144
2017-02-14T16:15:36.794Z,136